Time;durP1;ratioP1;P1;durP2;ratioP2;P2;SDS_P1;SDS_P2;PMS_P1;PMS_P2;Temp;Humidity;BMP_temperature;BMP_pressure;BME280_temperature;BME280_humidity;BME280_pressure;Samples;Min_cycle;Max_cycle;Signal;HPM_P1;HPM_P2
2021/09/06 00:00:37;;;;;;;31.15;13.80;;;11.60;99.90;;;;;;4846197;29;20060;-90
2021/09/06 00:03:03;;;;;;;28.60;12.85;;;11.60;99.90;;;;;;4842067;29;20056;-89
2021/09/06 00:05:29;;;;;;;15.68;9.90;;;11.60;99.90;;;;;;4855443;29;20049;-89
2021/09/06 00:07:55;;;;;;;19.40;10.57;;;11.60;99.90;;;;;;4847215;29;20136;-89
2021/09/06 00:10:33;;;;;;;18.42;10.93;;;11.50;99.90;;;;;;4827381;29;20056;-89
2021/09/06 00:13:00;;;;;;;16.17;9.05;;;11.50;99.90;;;;;;4843043;29;20053;-88
2021/09/06 00:15:27;;;;;;;25.92;15.25;;;11.50;99.90;;;;;;4842069;29;20049;-88
2021/09/06 00:17:53;;;;;;;38.22;17.83;;;11.40;99.90;;;;;;4833355;29;20068;-88
2021/09/06 00:20:20;;;;;;;22.38;11.07;;;11.50;99.90;;;;;;4843106;29;20053;-89
2021/09/06 00:22:46;;;;;;;18.25;10.00;;;11.50;99.90;;;;;;4842572;29;20059;-88
2021/09/06 00:25:12;;;;;;;23.23;12.77;;;11.40;99.90;;;;;;4822142;29;20053;-89
2021/09/06 00:27:37;;;;;;;39.90;17.02;;;11.30;99.90;;;;;;4841962;29;20156;-88
2021/09/06 00:30:04;;;;;;;33.45;15.77;;;11.30;99.90;;;;;;4843263;29;20045;-89
2021/09/06 00:32:30;;;;;;;33.30;17.13;;;11.30;99.90;;;;;;4835928;29;20547;-88
2021/09/06 00:34:56;;;;;;;38.67;19.08;;;11.40;99.90;;;;;;4851266;29;20057;-89
2021/09/06 00:37:21;;;;;;;44.28;19.73;;;11.40;99.90;;;;;;4841782;29;20104;-88
2021/09/06 00:39:47;;;;;;;56.45;24.77;;;11.40;99.90;;;;;;4847111;29;20053;-90
2021/09/06 00:42:14;;;;;;;36.67;19.25;;;11.40;99.90;;;;;;4816437;29;20125;-88
2021/09/06 00:44:40;;;;;;;37.97;18.77;;;11.30;99.90;;;;;;4857852;29;20103;-88
2021/09/06 00:47:06;;;;;;;30.90;16.58;;;11.30;99.90;;;;;;4820631;29;20109;-88
2021/09/06 00:49:32;;;;;;;26.63;14.70;;;11.30;99.90;;;;;;4820104;29;20053;-87
2021/09/06 00:51:58;;;;;;;20.45;8.13;;;11.30;99.90;;;;;;4849128;29;20541;-88
2021/09/06 00:54:24;;;;;;;22.20;10.60;;;11.20;99.90;;;;;;4846807;29;20122;-87
2021/09/06 00:56:51;;;;;;;28.48;13.82;;;11.20;99.90;;;;;;4832482;29;20058;-87
2021/09/06 00:59:16;;;;;;;39.90;17.35;;;11.10;99.90;;;;;;4856726;29;20095;-91
2021/09/06 01:01:42;;;;;;;45.45;20.73;;;11.00;99.90;;;;;;4842403;29;20085;-88
2021/09/06 01:04:08;;;;;;;56.05;21.67;;;11.00;99.90;;;;;;4821946;29;20570;-88
2021/09/06 01:06:33;;;;;;;36.75;19.38;;;11.10;99.90;;;;;;4860374;29;20100;-89
2021/09/06 01:08:59;;;;;;;42.40;21.23;;;11.10;99.90;;;;;;4846141;29;20133;-88
2021/09/06 01:11:25;;;;;;;44.00;18.58;;;11.10;99.90;;;;;;4827946;29;20384;-88
2021/09/06 01:13:51;;;;;;;35.05;16.17;;;11.10;99.90;;;;;;4846697;29;20053;-88
2021/09/06 01:16:21;;;;;;;30.90;16.73;;;11.00;99.90;;;;;;4857770;29;20132;-88
2021/09/06 01:18:47;;;;;;;57.00;24.75;;;11.00;99.90;;;;;;4861374;29;20057;-87
2021/09/06 01:21:14;;;;;;;47.65;24.25;;;11.00;99.90;;;;;;4859074;29;20101;-88
2021/09/06 01:23:40;;;;;;;26.50;15.57;;;11.00;99.90;;;;;;4861019;29;20050;-88
2021/09/06 01:26:06;;;;;;;33.88;16.77;;;11.00;99.90;;;;;;4856100;29;20116;-88
2021/09/06 01:28:32;;;;;;;22.60;12.05;;;10.90;99.90;;;;;;4861835;29;20128;-90
2021/09/06 01:30:58;;;;;;;32.40;13.98;;;10.80;99.90;;;;;;4853077;29;20410;-88
2021/09/06 01:33:24;;;;;;;27.77;12.85;;;10.70;99.90;;;;;;4845487;29;20050;-91
2021/09/06 01:35:49;;;;;;;20.13;11.48;;;10.60;99.90;;;;;;4815652;29;20053;-89
2021/09/06 01:38:15;;;;;;;16.65;9.95;;;10.60;99.90;;;;;;4827372;29;20045;-89
2021/09/06 01:40:41;;;;;;;29.80;14.55;;;10.50;99.90;;;;;;4814272;29;20103;-89
2021/09/06 01:43:06;;;;;;;67.00;23.30;;;10.50;99.90;;;;;;4822988;29;20050;-88
2021/09/06 01:45:32;;;;;;;73.00;17.48;;;10.50;99.90;;;;;;4826631;29;20041;-88
2021/09/06 01:47:58;;;;;;;138.80;16.50;;;10.50;99.90;;;;;;4809666;29;20050;-89
2021/09/06 01:50:24;;;;;;;138.55;12.65;;;10.50;99.90;;;;;;4845205;29;20057;-90
2021/09/06 01:52:50;;;;;;;360.95;21.85;;;10.50;99.90;;;;;;4829300;29;20085;-89
2021/09/06 01:55:16;;;;;;;99.65;10.50;;;10.50;99.90;;;;;;4825608;29;20046;-89
2021/09/06 01:57:42;;;;;;;75.28;15.43;;;10.50;99.90;;;;;;4857876;29;20056;-88
2021/09/06 02:00:08;;;;;;;472.02;18.45;;;10.40;99.90;;;;;;4840538;29;20065;-88
2021/09/06 02:02:34;;;;;;;453.85;16.38;;;10.40;99.90;;;;;;4844868;29;20049;-88
2021/09/06 02:04:59;;;;;;;221.32;21.05;;;10.50;99.90;;;;;;4854873;29;20837;-88
2021/09/06 02:07:25;;;;;;;266.58;24.35;;;10.50;99.90;;;;;;4845403;29;20118;-91
2021/09/06 02:09:51;;;;;;;126.50;17.75;;;10.40;99.90;;;;;;4837660;29;20136;-88
2021/09/06 02:12:16;;;;;;;104.75;8.15;;;10.30;99.90;;;;;;4845189;29;20133;-88
2021/09/06 02:14:42;;;;;;;133.77;18.00;;;10.30;99.90;;;;;;4860437;29;20042;-88
2021/09/06 02:17:08;;;;;;;30.08;13.57;;;10.20;99.90;;;;;;4854483;29;20113;-88
2021/09/06 02:19:33;;;;;;;16.00;9.15;;;10.20;99.90;;;;;;4860487;29;20058;-88
2021/09/06 02:21:59;;;;;;;26.17;12.35;;;10.10;99.90;;;;;;4853909;29;20497;-89
2021/09/06 02:24:26;;;;;;;16.05;9.90;;;10.00;99.90;;;;;;4845141;29;21325;-91
2021/09/06 02:26:52;;;;;;;20.02;8.70;;;10.00;99.90;;;;;;4825264;29;20053;-89
2021/09/06 02:29:18;;;;;;;26.50;9.57;;;9.90;99.90;;;;;;4841238;29;20061;-88
2021/09/06 02:31:44;;;;;;;73.80;10.15;;;9.90;99.90;;;;;;4859211;29;20101;-88
2021/09/06 02:34:10;;;;;;;85.47;11.40;;;9.80;99.90;;;;;;4869615;29;20050;-89
2021/09/06 02:36:36;;;;;;;188.35;16.70;;;9.80;99.90;;;;;;4854709;29;20053;-88
2021/09/06 02:39:03;;;;;;;158.75;18.77;;;9.80;99.90;;;;;;4832184;29;20064;-87
2021/09/06 02:41:29;;;;;;;156.13;12.40;;;9.90;99.90;;;;;;4859056;29;20061;-92
2021/09/06 02:43:55;;;;;;;286.60;16.15;;;9.90;99.90;;;;;;4862940;29;20064;-87
2021/09/06 02:46:21;;;;;;;206.43;20.95;;;9.90;99.90;;;;;;4846961;29;20521;-87
2021/09/06 02:48:47;;;;;;;192.13;20.40;;;9.90;99.90;;;;;;4843216;29;20085;-88
2021/09/06 02:51:13;;;;;;;146.43;15.52;;;9.90;99.90;;;;;;4854415;29;20054;-89
2021/09/06 02:53:39;;;;;;;111.03;13.35;;;9.80;99.90;;;;;;4844894;29;20057;-88
2021/09/06 02:56:04;;;;;;;83.93;15.75;;;9.90;99.90;;;;;;4841081;29;20071;-88
2021/09/06 02:58:30;;;;;;;163.00;12.20;;;9.80;99.90;;;;;;4866118;29;20060;-93
2021/09/06 03:00:56;;;;;;;380.80;36.35;;;9.90;99.90;;;;;;4847712;29;20133;-88
2021/09/06 03:03:22;;;;;;;304.88;23.75;;;9.90;99.90;;;;;;4878465;29;20647;-88
2021/09/06 03:05:47;;;;;;;384.35;32.97;;;9.90;99.90;;;;;;4862924;29;20773;-87
2021/09/06 03:08:13;;;;;;;149.32;15.20;;;9.80;99.90;;;;;;4879049;29;20131;-87
2021/09/06 03:10:39;;;;;;;178.63;25.45;;;9.70;99.90;;;;;;4861743;29;20133;-87
2021/09/06 03:13:05;;;;;;;138.43;21.80;;;9.70;99.90;;;;;;4863355;29;20044;-88
2021/09/06 03:15:30;;;;;;;141.23;20.20;;;9.70;99.90;;;;;;4862869;29;20529;-91
2021/09/06 03:17:56;;;;;;;98.97;14.00;;;9.70;99.90;;;;;;4862275;29;20080;-90
2021/09/06 03:20:22;;;;;;;136.35;14.02;;;9.70;99.90;;;;;;4863145;29;20105;-88
2021/09/06 03:22:48;;;;;;;119.57;17.10;;;9.70;99.90;;;;;;4862315;29;20066;-91
2021/09/06 03:25:14;;;;;;;176.77;18.25;;;9.60;99.90;;;;;;4862912;29;20049;-88
2021/09/06 03:27:39;;;;;;;127.53;11.38;;;9.50;99.90;;;;;;4862385;29;20498;-88
2021/09/06 03:30:09;;;;;;;256.15;16.92;;;9.50;99.90;;;;;;4847541;29;20060;-87
2021/09/06 03:32:35;;;;;;;200.05;14.00;;;9.40;99.90;;;;;;4831535;29;20131;-89
2021/09/06 03:35:00;;;;;;;113.63;15.20;;;9.40;99.90;;;;;;4862446;29;20131;-88
2021/09/06 03:37:26;;;;;;;226.98;15.60;;;9.40;99.90;;;;;;4832316;29;20101;-87
2021/09/06 03:39:52;;;;;;;67.97;15.07;;;9.30;99.90;;;;;;4861893;29;20128;-88
2021/09/06 03:42:18;;;;;;;79.72;9.82;;;9.30;99.90;;;;;;4862572;29;20059;-87
2021/09/06 03:44:43;;;;;;;22.67;8.32;;;9.20;99.90;;;;;;4815325;29;20100;-88
2021/09/06 03:47:09;;;;;;;128.43;12.10;;;9.20;99.90;;;;;;4862437;29;20057;-88
2021/09/06 03:49:35;;;;;;;101.95;16.15;;;9.10;99.90;;;;;;4846898;29;20081;-91
2021/09/06 03:52:01;;;;;;;83.05;11.25;;;9.10;99.90;;;;;;4861797;29;20057;-88
2021/09/06 03:54:27;;;;;;;97.45;8.25;;;9.10;99.90;;;;;;4847230;29;20045;-88
2021/09/06 03:56:52;;;;;;;151.07;13.00;;;9.00;99.90;;;;;;4846207;29;20065;-89
2021/09/06 03:59:18;;;;;;;128.93;6.93;;;9.10;99.90;;;;;;4862222;29;20049;-88
2021/09/06 04:01:45;;;;;;;172.50;12.48;;;9.00;99.90;;;;;;4861836;29;20060;-88
2021/09/06 04:04:10;;;;;;;207.20;11.30;;;9.00;99.90;;;;;;4846808;29;20503;-88
2021/09/06 04:06:36;;;;;;;139.38;16.40;;;9.00;99.90;;;;;;4862029;29;20068;-91
2021/09/06 04:09:02;;;;;;;175.95;15.27;;;9.00;99.90;;;;;;4852626;29;20474;-88
2021/09/06 04:11:28;;;;;;;15.90;11.77;;;9.00;99.90;;;;;;4862374;29;20064;-88
2021/09/06 04:13:53;;;;;;;14.15;11.60;;;9.00;99.90;;;;;;4831416;29;20517;-90
2021/09/06 04:16:19;;;;;;;19.33;11.65;;;9.00;99.90;;;;;;4849336;29;20402;-88
2021/09/06 04:18:44;;;;;;;19.85;10.57;;;9.00;99.90;;;;;;4862313;29;20056;-88
2021/09/06 04:21:10;;;;;;;14.63;9.65;;;9.00;99.90;;;;;;4846906;29;20053;-88
2021/09/06 04:23:36;;;;;;;28.85;14.63;;;9.00;99.90;;;;;;4831606;29;20131;-91
2021/09/06 04:26:02;;;;;;;43.28;18.55;;;9.00;99.90;;;;;;4846506;29;20053;-88
2021/09/06 04:28:28;;;;;;;37.05;15.95;;;9.00;99.90;;;;;;4862146;29;20390;-88
2021/09/06 04:30:54;;;;;;;28.38;14.15;;;9.00;99.90;;;;;;4861502;29;20097;-89
2021/09/06 04:33:19;;;;;;;28.85;13.50;;;9.00;99.90;;;;;;4862281;29;20532;-88
2021/09/06 04:35:45;;;;;;;44.10;16.13;;;9.00;99.90;;;;;;4861741;29;20057;-89
2021/09/06 04:38:11;;;;;;;55.00;16.20;;;8.90;99.90;;;;;;4841929;29;20053;-88
2021/09/06 04:40:36;;;;;;;65.18;18.45;;;8.90;99.90;;;;;;4831509;29;20045;-90
2021/09/06 04:43:02;;;;;;;33.65;16.52;;;8.90;99.90;;;;;;4863320;29;20061;-87
2021/09/06 04:45:28;;;;;;;102.63;16.42;;;8.90;99.90;;;;;;4873070;29;20494;-87
2021/09/06 04:47:53;;;;;;;33.88;14.55;;;8.80;99.90;;;;;;4852572;29;20052;-90
2021/09/06 04:50:19;;;;;;;28.88;13.98;;;8.80;99.90;;;;;;4846328;29;20049;-87
2021/09/06 04:52:45;;;;;;;22.17;10.90;;;8.80;99.90;;;;;;4845812;29;20060;-87
2021/09/06 04:55:11;;;;;;;19.42;11.52;;;8.80;99.90;;;;;;4846198;29;20060;-87
2021/09/06 04:57:36;;;;;;;21.73;11.82;;;8.80;99.90;;;;;;4845579;29;20182;-87
2021/09/06 05:00:03;;;;;;;30.70;14.13;;;8.80;99.90;;;;;;4860929;29;20085;-87
2021/09/06 05:02:29;;;;;;;45.25;21.33;;;8.80;99.90;;;;;;4846331;29;20040;-87
2021/09/06 05:04:55;;;;;;;49.83;22.77;;;8.80;99.90;;;;;;4861022;29;20504;-88
2021/09/06 05:07:20;;;;;;;95.47;17.00;;;8.80;99.90;;;;;;4846554;29;20048;-88
2021/09/06 05:09:46;;;;;;;37.30;18.13;;;8.80;99.90;;;;;;4860975;29;20049;-87
2021/09/06 05:12:12;;;;;;;18.52;13.88;;;8.80;99.90;;;;;;4845876;29;20060;-87
2021/09/06 05:14:37;;;;;;;62.47;24.73;;;8.80;99.90;;;;;;4833675;29;20132;-87
2021/09/06 05:17:03;;;;;;;24.13;14.18;;;8.80;99.90;;;;;;4860953;29;20117;-87
2021/09/06 05:19:29;;;;;;;35.60;20.13;;;8.90;99.90;;;;;;4845892;29;20056;-88
2021/09/06 05:21:54;;;;;;;49.00;21.63;;;9.00;99.90;;;;;;4845809;29;20053;-87
2021/09/06 05:24:20;;;;;;;43.97;20.05;;;9.00;99.90;;;;;;4830710;29;20127;-89
2021/09/06 05:26:46;;;;;;;54.10;18.02;;;9.00;99.90;;;;;;4845705;29;20067;-91
2021/09/06 05:29:12;;;;;;;75.57;20.52;;;9.00;99.90;;;;;;4861390;29;20057;-89
2021/09/06 05:31:37;;;;;;;79.22;21.08;;;9.10;99.90;;;;;;4845849;29;20124;-87
2021/09/06 05:34:03;;;;;;;187.15;29.58;;;9.00;99.90;;;;;;4830760;29;20585;-87
2021/09/06 05:36:28;;;;;;;146.98;20.73;;;9.00;99.90;;;;;;4846014;29;20068;-87
2021/09/06 05:38:54;;;;;;;131.52;27.00;;;9.00;99.90;;;;;;4877376;29;20128;-87
2021/09/06 05:41:20;;;;;;;41.88;21.33;;;9.10;99.90;;;;;;4845586;29;20106;-90
2021/09/06 05:43:49;;;;;;;42.58;24.05;;;9.10;99.90;;;;;;4861082;29;20080;-92
2021/09/06 05:46:15;;;;;;;47.88;22.90;;;9.10;99.90;;;;;;4845554;29;20490;-87
2021/09/06 05:48:41;;;;;;;37.65;19.30;;;9.20;99.90;;;;;;4861221;29;20057;-88
2021/09/06 05:51:06;;;;;;;36.85;20.33;;;9.20;99.90;;;;;;4846468;29;20047;-87
2021/09/06 05:53:32;;;;;;;50.75;24.00;;;9.20;99.90;;;;;;4849305;29;20061;-88
2021/09/06 05:55:58;;;;;;;100.05;30.88;;;9.20;99.90;;;;;;4863910;29;20056;-88
2021/09/06 05:58:23;;;;;;;78.50;37.05;;;9.30;99.90;;;;;;4849334;29;20055;-87
2021/09/06 06:00:49;;;;;;;66.45;30.80;;;9.30;99.90;;;;;;4864144;29;20084;-91
2021/09/06 06:03:15;;;;;;;35.78;21.25;;;9.40;99.90;;;;;;4846700;29;20100;-87
2021/09/06 06:05:40;;;;;;;23.75;15.15;;;9.40;99.90;;;;;;4864295;29;20513;-90
2021/09/06 06:08:06;;;;;;;28.23;17.92;;;9.50;99.90;;;;;;4864194;29;20082;-88
2021/09/06 06:10:32;;;;;;;46.25;23.10;;;9.50;99.90;;;;;;4878706;29;20056;-90
2021/09/06 06:12:57;;;;;;;41.63;22.60;;;9.60;99.90;;;;;;4834111;29;20132;-87
2021/09/06 06:15:23;;;;;;;45.53;23.05;;;9.60;99.90;;;;;;4854203;29;20068;-87
2021/09/06 06:17:49;;;;;;;37.72;18.90;;;9.70;99.90;;;;;;4846795;29;20056;-93
2021/09/06 06:20:14;;;;;;;51.88;24.20;;;9.70;99.90;;;;;;4856122;29;20044;-86
2021/09/06 06:22:40;;;;;;;39.75;23.15;;;9.70;99.90;;;;;;4868609;29;20057;-87
2021/09/06 06:25:06;;;;;;;38.72;21.92;;;9.80;99.90;;;;;;4874013;29;20057;-88
2021/09/06 06:27:32;;;;;;;49.33;25.95;;;9.90;99.90;;;;;;4856109;29;20049;-87
2021/09/06 06:29:58;;;;;;;50.17;26.65;;;9.90;99.90;;;;;;4883062;29;20135;-89
2021/09/06 06:32:23;;;;;;;60.17;27.75;;;10.00;99.90;;;;;;4846057;29;20375;-88
2021/09/06 06:34:49;;;;;;;50.58;28.00;;;10.10;99.90;;;;;;4868794;29;20113;-91
2021/09/06 06:37:15;;;;;;;61.35;30.27;;;10.10;99.90;;;;;;4856639;29;20061;-88
2021/09/06 06:39:40;;;;;;;67.00;32.83;;;10.20;99.90;;;;;;4863532;29;20052;-89
2021/09/06 06:42:06;;;;;;;60.08;30.73;;;10.30;99.90;;;;;;4876319;29;20056;-88
2021/09/06 06:44:32;;;;;;;74.28;34.50;;;10.40;99.90;;;;;;4863662;29;20128;-88
2021/09/06 06:46:58;;;;;;;78.20;38.20;;;10.50;99.90;;;;;;4862875;29;20053;-88
2021/09/06 06:49:24;;;;;;;101.53;46.28;;;10.70;99.90;;;;;;4863417;29;20112;-89
2021/09/06 06:51:50;;;;;;;101.15;47.05;;;10.80;99.90;;;;;;4847832;29;20400;-88
2021/09/06 06:54:16;;;;;;;102.40;46.92;;;11.00;99.90;;;;;;4847971;29;20053;-88
2021/09/06 06:56:42;;;;;;;95.20;44.33;;;11.10;99.90;;;;;;4847916;29;20072;-89
2021/09/06 06:59:07;;;;;;;144.23;57.10;;;11.20;99.90;;;;;;4858444;29;20466;-88
2021/09/06 07:01:33;;;;;;;103.95;48.17;;;11.30;99.90;;;;;;4874809;29;20057;-87
2021/09/06 07:03:59;;;;;;;142.63;56.35;;;11.40;99.90;;;;;;4862361;29;20478;-88
2021/09/06 07:06:26;;;;;;;126.32;54.90;;;11.50;99.90;;;;;;4870644;29;20049;-88
2021/09/06 07:08:51;;;;;;;140.55;55.83;;;11.70;99.90;;;;;;4862281;29;20060;-89
2021/09/06 07:11:17;;;;;;;147.70;61.35;;;11.90;99.90;;;;;;4851297;29;20123;-90
2021/09/06 07:13:43;;;;;;;137.77;57.33;;;12.10;99.90;;;;;;4863125;29;20136;-88
2021/09/06 07:16:08;;;;;;;145.50;60.10;;;12.30;99.90;;;;;;4870413;29;20045;-90
2021/09/06 07:18:34;;;;;;;152.25;62.53;;;12.40;99.90;;;;;;4863347;29;20547;-89
2021/09/06 07:21:00;;;;;;;153.85;63.65;;;12.60;99.90;;;;;;4847616;29;20049;-91
2021/09/06 07:23:25;;;;;;;147.15;58.42;;;12.80;99.90;;;;;;4862880;29;20390;-90
2021/09/06 07:25:51;;;;;;;139.70;58.83;;;12.90;99.90;;;;;;4862706;29;20049;-90
2021/09/06 07:28:17;;;;;;;117.38;50.25;;;13.00;99.90;;;;;;4846471;29;20098;-90
2021/09/06 07:30:42;;;;;;;113.93;48.30;;;13.10;99.90;;;;;;4862377;29;20053;-90
2021/09/06 07:33:08;;;;;;;108.50;47.40;;;13.20;99.90;;;;;;4828070;29;20064;-89
2021/09/06 07:35:34;;;;;;;95.75;41.42;;;13.30;99.90;;;;;;4847238;29;20053;-89
2021/09/06 07:38:00;;;;;;;70.47;34.80;;;13.50;99.90;;;;;;4846700;29;20098;-89
2021/09/06 07:40:26;;;;;;;75.88;35.30;;;13.60;99.90;;;;;;4847162;29;20077;-89
2021/09/06 07:42:52;;;;;;;57.28;28.65;;;13.60;99.90;;;;;;4862107;29;20136;-88
2021/09/06 07:45:18;;;;;;;64.68;31.05;;;13.80;99.90;;;;;;4861809;29;20060;-89
2021/09/06 07:47:44;;;;;;;58.08;29.83;;;13.90;99.90;;;;;;4852720;29;20053;-88
2021/09/06 07:50:11;;;;;;;65.95;32.20;;;14.10;99.90;;;;;;4865437;29;20049;-89
2021/09/06 07:52:37;;;;;;;61.78;30.08;;;14.20;99.90;;;;;;4854816;29;20112;-88
2021/09/06 07:55:04;;;;;;;60.20;28.05;;;14.30;99.90;;;;;;4873113;29;20080;-88
2021/09/06 07:57:30;;;;;;;41.38;23.98;;;14.40;99.90;;;;;;4861864;29;20542;-88
2021/09/06 07:59:56;;;;;;;44.33;23.27;;;14.50;99.90;;;;;;4831718;29;20136;-87
2021/09/06 08:02:22;;;;;;;42.63;21.88;;;14.60;99.90;;;;;;4846433;29;20133;-88
2021/09/06 08:04:48;;;;;;;36.65;20.55;;;14.60;99.90;;;;;;4846888;29;20524;-88
2021/09/06 08:07:13;;;;;;;36.47;20.88;;;14.70;99.90;;;;;;4846041;29;20127;-88
2021/09/06 08:09:39;;;;;;;37.83;21.60;;;14.80;99.90;;;;;;4831591;29;20397;-88
2021/09/06 08:12:06;;;;;;;34.30;19.75;;;14.90;99.90;;;;;;4830736;29;20053;-89
2021/09/06 08:14:32;;;;;;;37.38;20.80;;;15.00;99.90;;;;;;4845821;29;20041;-88
2021/09/06 08:16:57;;;;;;;37.63;19.50;;;15.10;99.90;;;;;;4861679;29;20045;-88
2021/09/06 08:19:26;;;;;;;34.35;19.13;;;15.20;99.90;;;;;;4845885;29;20148;-89
2021/09/06 08:21:53;;;;;;;28.73;16.40;;;15.40;99.90;;;;;;4846352;29;20051;-89
2021/09/06 08:24:19;;;;;;;30.02;18.30;;;15.50;99.90;;;;;;4845884;29;20061;-88
2021/09/06 08:26:45;;;;;;;27.05;16.08;;;15.60;99.90;;;;;;4861279;29;20049;-88
2021/09/06 08:29:11;;;;;;;23.80;15.48;;;15.80;99.90;;;;;;4861158;29;20105;-89
2021/09/06 08:31:37;;;;;;;27.80;16.27;;;15.90;99.90;;;;;;4859202;29;20052;-88
2021/09/06 08:34:02;;;;;;;27.20;15.98;;;16.10;99.90;;;;;;4846732;29;20387;-90
2021/09/06 08:36:28;;;;;;;21.13;14.45;;;16.20;99.90;;;;;;4880810;29;20121;-88
2021/09/06 08:38:54;;;;;;;27.83;15.63;;;16.40;99.90;;;;;;4846342;29;20057;-90
2021/09/06 08:41:20;;;;;;;23.52;13.35;;;16.40;99.90;;;;;;4842756;29;20509;-89
2021/09/06 08:43:45;;;;;;;23.27;12.75;;;16.60;99.90;;;;;;4862673;29;20088;-90
2021/09/06 08:46:11;;;;;;;26.77;13.52;;;16.80;99.90;;;;;;4859054;29;20306;-89
2021/09/06 08:48:37;;;;;;;26.08;13.95;;;16.90;99.90;;;;;;4847450;29;20095;-88
2021/09/06 08:51:03;;;;;;;29.65;14.10;;;17.00;99.90;;;;;;4860223;29;20045;-91
2021/09/06 08:53:29;;;;;;;30.15;15.27;;;17.00;99.90;;;;;;4845946;29;20132;-90
2021/09/06 08:55:56;;;;;;;27.52;14.07;;;17.10;99.90;;;;;;4844404;29;20052;-89
2021/09/06 08:58:22;;;;;;;27.42;14.30;;;17.10;99.90;;;;;;4859691;29;20048;-89
2021/09/06 09:00:52;;;;;;;26.48;15.35;;;17.20;99.90;;;;;;4860861;29;20466;-89
2021/09/06 09:03:19;;;;;;;24.85;15.55;;;17.20;99.90;;;;;;4858649;29;20053;-90
2021/09/06 09:06:06;;;;;;;28.90;15.20;;;17.20;99.90;;;;;;4845197;29;20081;-89
2021/09/06 09:08:33;;;;;;;28.08;16.65;;;17.20;99.90;;;;;;4863280;29;20080;-89
2021/09/06 09:11:04;;;;;;;29.95;15.93;;;17.10;99.90;;;;;;4861327;29;20049;-89
2021/09/06 09:13:32;;;;;;;30.90;14.25;;;17.10;99.90;;;;;;4845633;29;20105;-89
2021/09/06 09:15:58;;;;;;;26.58;13.55;;;17.10;99.90;;;;;;4845501;29;20149;-89
2021/09/06 09:18:33;;;;;;;22.73;12.05;;;17.00;99.90;;;;;;4845535;29;20397;-89
2021/09/06 09:21:07;;;;;;;14.98;10.80;;;17.00;99.90;;;;;;4857980;29;20056;-90
2021/09/06 09:23:45;;;;;;;16.10;9.43;;;17.00;99.90;;;;;;4860740;29;20057;-89
2021/09/06 09:26:12;;;;;;;19.95;10.38;;;17.10;99.90;;;;;;4861805;29;20059;-93
2021/09/06 09:28:41;;;;;;;15.50;9.85;;;17.10;99.90;;;;;;4864705;29;20067;-90
2021/09/06 09:31:09;;;;;;;15.32;10.00;;;17.20;99.90;;;;;;4861997;29;20045;-90
2021/09/06 09:33:44;;;;;;;21.00;11.57;;;17.30;99.90;;;;;;4860557;29;20060;-90
2021/09/06 09:36:10;;;;;;;24.08;13.00;;;17.40;99.90;;;;;;4861412;29;20136;-93
2021/09/06 09:38:37;;;;;;;26.55;12.25;;;17.50;99.90;;;;;;4862505;29;20049;-90
2021/09/06 09:41:15;;;;;;;19.55;10.63;;;17.60;99.90;;;;;;4845678;29;20045;-91
2021/09/06 09:43:41;;;;;;;21.98;11.45;;;17.60;99.90;;;;;;4854561;29;20057;-92
2021/09/06 09:46:08;;;;;;;17.27;9.45;;;17.80;99.90;;;;;;4840638;29;20383;-92
2021/09/06 09:48:33;;;;;;;13.70;7.97;;;17.90;99.90;;;;;;4852627;29;20049;-92
2021/09/06 09:51:00;;;;;;;11.93;5.93;;;18.00;99.90;;;;;;4845019;29;20051;-92
2021/09/06 09:53:26;;;;;;;14.60;5.55;;;18.10;99.90;;;;;;4829607;29;20041;-91
2021/09/06 09:55:52;;;;;;;6.90;4.63;;;18.30;99.90;;;;;;4860814;29;20478;-92
2021/09/06 09:58:18;;;;;;;16.65;5.68;;;18.40;99.90;;;;;;4848831;29;20513;-91
2021/09/06 10:00:46;;;;;;;8.48;5.95;;;18.50;99.90;;;;;;4865628;29;20056;-91
2021/09/06 10:03:13;;;;;;;10.70;6.35;;;18.50;99.90;;;;;;4889590;29;20414;-92
2021/09/06 10:05:39;;;;;;;8.55;5.75;;;18.50;99.90;;;;;;4845989;29;20057;-92
2021/09/06 10:08:09;;;;;;;11.15;6.55;;;18.50;99.90;;;;;;4860086;29;20088;-92
2021/09/06 10:10:40;;;;;;;8.80;5.90;;;18.50;99.90;;;;;;4861798;29;20080;-91
2021/09/06 10:13:08;;;;;;;8.38;5.75;;;18.50;99.90;;;;;;4864789;29;20041;-90
2021/09/06 10:15:35;;;;;;;12.00;6.30;;;18.50;99.90;;;;;;4864366;29;20528;-89
2021/09/06 10:18:22;;;;;;;9.60;6.65;;;18.60;99.90;;;;;;4864117;29;20436;-87
2021/09/06 10:20:52;;;;;;;14.10;6.75;;;18.80;99.90;;;;;;4860035;29;20109;-87
2021/09/06 10:23:18;;;;;;;10.27;5.45;;;18.90;99.90;;;;;;4863375;29;20084;-89
2021/09/06 10:25:45;;;;;;;7.93;4.80;;;19.10;99.90;;;;;;4817888;29;20520;-88
2021/09/06 10:28:13;;;;;;;10.10;4.65;;;19.20;99.90;;;;;;4857222;29;20510;-88
2021/09/06 10:30:48;;;;;;;7.15;4.38;;;19.40;99.90;;;;;;4845175;29;20049;-88
2021/09/06 10:33:30;;;;;;;7.07;5.30;;;19.40;99.90;;;;;;4869235;29;20048;-92
2021/09/06 10:36:12;;;;;;;10.93;5.72;;;19.40;99.90;;;;;;4868215;29;20079;-88
2021/09/06 10:38:42;;;;;;;8.63;5.00;;;19.60;99.90;;;;;;4859411;29;20057;-91
2021/09/06 10:41:20;;;;;;;10.50;5.38;;;19.80;99.90;;;;;;4859805;29;20052;-90
2021/09/06 10:44:07;;;;;;;8.73;5.65;;;20.00;99.90;;;;;;4839129;29;20197;-91
2021/09/06 10:46:33;;;;;;;12.57;6.78;;;20.10;99.90;;;;;;4850607;29;20081;-90
2021/09/06 10:49:03;;;;;;;10.27;7.00;;;20.10;99.90;;;;;;4843182;29;20085;-91
2021/09/06 10:51:31;;;;;;;11.98;7.18;;;20.10;99.90;;;;;;4851571;29;20107;-90
2021/09/06 10:53:59;;;;;;;14.30;8.80;;;20.00;99.90;;;;;;4845614;29;20053;-90
2021/09/06 10:56:26;;;;;;;11.45;7.75;;;20.00;99.90;;;;;;4844463;29;20049;-90
2021/09/06 10:58:54;;;;;;;11.90;8.27;;;19.90;99.90;;;;;;4845866;29;20486;-89
2021/09/06 11:01:20;;;;;;;13.90;9.13;;;20.00;99.90;;;;;;4845708;29;20132;-91
2021/09/06 11:03:47;;;;;;;14.40;9.13;;;20.00;99.90;;;;;;4861178;29;20052;-90
2021/09/06 11:06:13;;;;;;;15.75;9.13;;;20.00;99.90;;;;;;4860661;29;20045;-90
2021/09/06 11:08:39;;;;;;;11.98;7.93;;;19.90;99.90;;;;;;4845044;29;20051;-89
2021/09/06 11:11:07;;;;;;;16.10;7.40;;;20.00;99.90;;;;;;4861084;29;20049;-90
2021/09/06 11:13:39;;;;;;;8.88;6.93;;;19.90;99.90;;;;;;4854641;29;20120;-90
2021/09/06 11:16:06;;;;;;;10.38;7.43;;;19.90;99.90;;;;;;4854211;29;20045;-90
2021/09/06 11:18:34;;;;;;;8.30;7.35;;;19.90;99.90;;;;;;4844836;29;20045;-89
2021/09/06 11:21:01;;;;;;;13.35;7.65;;;20.10;99.90;;;;;;4860320;29;20053;-91
2021/09/06 11:23:35;;;;;;;11.57;7.13;;;20.20;99.90;;;;;;4844869;29;20059;-90
2021/09/06 11:26:01;;;;;;;11.15;6.72;;;20.30;99.90;;;;;;4846077;29;20056;-90
2021/09/06 11:28:27;;;;;;;11.88;6.90;;;20.30;99.90;;;;;;4845028;29;20064;-90
2021/09/06 11:30:54;;;;;;;10.77;7.00;;;20.40;99.90;;;;;;4844829;29;20048;-90
2021/09/06 11:33:20;;;;;;;8.88;7.03;;;20.30;99.90;;;;;;4844861;29;20048;-91
2021/09/06 11:35:47;;;;;;;11.43;6.90;;;20.30;99.90;;;;;;4859478;29;20429;-90
2021/09/06 11:38:15;;;;;;;10.15;6.68;;;20.30;99.90;;;;;;4856994;29;20472;-90
2021/09/06 11:40:42;;;;;;;12.88;5.68;;;20.20;99.90;;;;;;4824924;29;20602;-91
2021/09/06 11:43:09;;;;;;;7.70;5.38;;;20.10;99.90;;;;;;4840159;29;20508;-90
2021/09/06 11:45:36;;;;;;;7.78;5.68;;;20.10;99.90;;;;;;4842069;29;20052;-90
2021/09/06 11:48:03;;;;;;;7.55;4.82;;;20.10;99.90;;;;;;4855595;29;20493;-90
2021/09/06 11:50:38;;;;;;;7.60;4.40;;;20.10;99.90;;;;;;4858279;29;20136;-90
2021/09/06 11:53:13;;;;;;;10.80;4.20;;;20.10;99.90;;;;;;4860547;29;20070;-90
2021/09/06 11:55:50;;;;;;;8.73;4.10;;;20.10;99.90;;;;;;4848397;29;20442;-90
2021/09/06 11:58:16;;;;;;;6.05;3.25;;;20.10;99.90;;;;;;4855469;29;20105;-91
2021/09/06 12:00:42;;;;;;;4.75;3.08;;;20.10;99.90;;;;;;4833914;29;20041;-91
2021/09/06 12:03:09;;;;;;;6.35;3.35;;;20.00;99.90;;;;;;4844937;29;20414;-90
2021/09/06 12:05:50;;;;;;;5.05;3.65;;;19.90;99.90;;;;;;4859310;29;20049;-90
2021/09/06 12:08:17;;;;;;;6.97;3.80;;;20.10;99.90;;;;;;4869957;29;20052;-90
2021/09/06 12:10:46;;;;;;;8.10;3.00;;;20.20;99.90;;;;;;4840327;29;20046;-89
2021/09/06 12:13:21;;;;;;;7.53;2.95;;;20.40;99.90;;;;;;4856784;29;20056;-90
2021/09/06 12:15:56;;;;;;;4.53;2.83;;;20.50;99.90;;;;;;4854758;29;20052;-91
2021/09/06 12:18:22;;;;;;;3.03;2.35;;;20.60;99.90;;;;;;4842985;29;20080;-90
2021/09/06 12:20:48;;;;;;;4.47;2.50;;;20.50;99.90;;;;;;4854740;29;20084;-90
2021/09/06 12:23:29;;;;;;;4.45;2.78;;;20.60;99.90;;;;;;4859615;29;20045;-90
2021/09/06 12:25:55;;;;;;;5.38;2.80;;;20.60;99.90;;;;;;4860037;29;20089;-91
2021/09/06 12:28:20;;;;;;;3.15;2.63;;;20.70;99.90;;;;;;4852669;29;20087;-89